Annandale, Virginia
Current Conditions -  °F | °C
As of 6:43 AM on Tuesday 21 Oct 2014 (Local Time) from KDAA Reporting Station
Haze Haze  
Wind Chill: 46°   Ceiling: Unl
Heat Index: 46°   Visibility: 6mi
Dew Point: 46°   Wind: 0mph
Humidity: 100%   Direction: NA
Pressure: 29.87"   Gusts: NA
Location:  38.83°N, 77.19°W
Report Text: KDAA 211043Z AUTO 00000KT 6SM R32/5000FT BR CLR 08/08 A2987 RMK AO2
Loading
Personal Weather Stations






























Interactive Weather Map New forecast layout! Learn more

10-Day Weather Forecast

Advertisements
Track Severe Weather on mobile